Time;durP1;ratioP1;P1;durP2;ratioP2;P2;SDS_P1;SDS_P2;PMS_P1;PMS_P2;Temp;Humidity;BMP_temperature;BMP_pressure;BME280_temperature;BME280_humidity;BME280_pressure;Samples;Min_cycle;Max_cycle;Signal;HPM_P1;HPM_P2
2023/10/04 03:00:45;;;;;;;2.22;1.33;;;22.50;51.70;;;;;;5912827;23;46394;-82
2023/10/04 03:03:14;;;;;;;2.17;1.20;;;22.50;51.70;;;;;;4836265;29;50503;-83
2023/10/04 03:05:41;;;;;;;1.25;1.00;;;22.50;51.70;;;;;;4822441;29;45196;-84
2023/10/04 03:08:08;;;;;;;1.33;1.20;;;22.50;51.70;;;;;;4862160;29;45583;-83
2023/10/04 03:10:34;;;;;;;2.25;1.30;;;22.50;51.60;;;;;;4859934;29;45545;-84
2023/10/04 03:13:11;;;;;;;2.00;1.20;;;22.50;51.60;;;;;;4846138;29;45525;-84
2023/10/04 03:15:40;;;;;;;1.50;1.20;;;22.50;51.60;;;;;;4837265;29;45898;-84
2023/10/04 03:18:17;;;;;;;1.50;1.20;;;22.50;51.60;;;;;;4844519;29;45630;-84
2023/10/04 03:21:08;;;;;;;1.63;1.30;;;22.50;51.60;;;;;;4856146;29;45587;-83
2023/10/04 03:23:35;;;;;;;1.90;1.30;;;22.50;51.60;;;;;;4876580;28;45020;-84
2023/10/04 03:26:03;;;;;;;1.60;1.02;;;22.50;51.50;;;;;;4867109;29;44764;-85
2023/10/04 03:28:33;;;;;;;2.10;1.13;;;22.50;51.50;;;;;;4859538;29;44994;-84
2023/10/04 03:31:01;;;;;;;1.47;1.20;;;22.50;51.50;;;;;;4869526;29;46628;-82
2023/10/04 03:33:26;;;;;;;3.78;1.20;;;22.50;51.50;;;;;;4848175;29;45250;-84
2023/10/04 03:35:53;;;;;;;1.73;1.20;;;22.50;51.50;;;;;;4816166;29;45019;-84
2023/10/04 03:38:20;;;;;;;1.45;1.13;;;22.50;51.40;;;;;;4856260;29;45933;-84
2023/10/04 03:40:46;;;;;;;2.17;1.20;;;22.40;51.30;;;;;;4872580;29;45652;-84
2023/10/04 03:43:12;;;;;;;2.75;1.30;;;22.40;51.40;;;;;;4867787;29;45265;-84
2023/10/04 03:45:42;;;;;;;1.60;1.20;;;22.50;51.40;;;;;;4870687;29;45234;-85
2023/10/04 03:48:15;;;;;;;2.38;1.40;;;22.50;51.40;;;;;;4850080;29;45217;-84
2023/10/04 03:50:51;;;;;;;1.92;1.15;;;22.50;51.40;;;;;;4865051;28;47189;-85
2023/10/04 03:53:21;;;;;;;1.47;1.20;;;22.40;51.40;;;;;;4863827;29;45039;-84
2023/10/04 03:55:47;;;;;;;1.20;1.03;;;22.50;51.40;;;;;;4872700;29;45488;-84
2023/10/04 03:58:15;;;;;;;1.60;1.00;;;22.50;51.30;;;;;;4859914;28;45536;-85
2023/10/04 04:00:41;;;;;;;2.28;1.35;;;22.40;51.30;;;;;;4850974;29;47431;-84
2023/10/04 04:03:08;;;;;;;1.50;1.30;;;22.50;51.30;;;;;;4857264;28;45578;-84
2023/10/04 04:05:39;;;;;;;1.67;1.30;;;22.40;51.30;;;;;;4836271;28;45336;-84
2023/10/04 04:08:06;;;;;;;1.23;1.10;;;22.40;51.20;;;;;;4864456;28;46199;-84
2023/10/04 04:10:31;;;;;;;1.70;1.10;;;22.50;51.30;;;;;;4874113;28;45583;-84
2023/10/04 04:12:59;;;;;;;1.67;1.30;;;22.40;51.20;;;;;;4845019;29;45034;-83
2023/10/04 04:15:26;;;;;;;1.98;1.40;;;22.40;51.20;;;;;;4871602;28;45547;-84
2023/10/04 04:17:54;;;;;;;2.97;1.40;;;22.40;51.20;;;;;;4843399;28;44999;-83
2023/10/04 04:20:23;;;;;;;1.85;1.38;;;22.50;51.20;;;;;;4889539;28;46450;-83
2023/10/04 04:22:53;;;;;;;2.38;1.30;;;22.40;51.20;;;;;;4844922;28;45371;-84
2023/10/04 04:25:23;;;;;;;2.77;1.20;;;22.40;51.20;;;;;;4847345;28;45212;-84
2023/10/04 04:27:50;;;;;;;2.00;1.45;;;22.40;51.10;;;;;;4862204;28;45564;-84
2023/10/04 04:30:21;;;;;;;1.70;1.17;;;22.40;51.10;;;;;;4826418;28;46025;-84
2023/10/04 04:32:56;;;;;;;1.45;1.10;;;22.40;51.10;;;;;;4875932;28;45332;-84
2023/10/04 04:38:12;;;;;;;1.48;1.10;;;22.40;51.10;;;;;;4869026;28;45777;-84
2023/10/04 04:40:38;;;;;;;1.80;1.40;;;22.40;51.10;;;;;;4843318;28;45577;-83
2023/10/04 04:43:34;;;;;;;1.67;1.30;;;22.40;51.10;;;;;;4845594;28;45013;-83
2023/10/04 04:45:51;;;;;;;1.33;1.17;;;22.40;51.10;;;;;;4848612;28;45382;-84
2023/10/04 04:48:24;;;;;;;3.60;1.60;;;22.40;51.10;;;;;;4851197;28;45198;-83
2023/10/04 04:50:54;;;;;;;2.70;1.30;;;22.40;51.10;;;;;;4861198;28;45349;-83
2023/10/04 04:53:24;;;;;;;1.43;1.20;;;22.40;51.10;;;;;;4832821;28;44961;-84
2023/10/04 04:55:50;;;;;;;1.48;1.10;;;22.40;51.10;;;;;;4849392;28;45515;-83
2023/10/04 04:58:19;;;;;;;2.47;1.30;;;22.40;51.10;;;;;;4866054;28;45214;-84
2023/10/04 05:00:49;;;;;;;1.83;1.23;;;22.40;51.10;;;;;;4871138;28;46358;-84
2023/10/04 05:03:16;;;;;;;2.53;1.45;;;22.40;51.00;;;;;;4865062;28;45532;-84
2023/10/04 05:05:42;;;;;;;1.70;1.38;;;22.30;51.00;;;;;;4848381;29;45057;-83
2023/10/04 05:08:08;;;;;;;3.20;1.43;;;22.40;51.00;;;;;;4864550;28;45457;-84
2023/10/04 05:10:38;;;;;;;1.63;1.30;;;22.40;51.00;;;;;;4862007;28;47044;-83
2023/10/04 05:13:07;;;;;;;1.80;1.30;;;22.40;51.10;;;;;;4852950;28;45051;-84
2023/10/04 05:15:34;;;;;;;2.13;1.30;;;22.40;51.00;;;;;;4873832;28;45851;-84
2023/10/04 05:18:08;;;;;;;2.10;1.55;;;22.40;51.00;;;;;;4828294;28;45286;-83
2023/10/04 05:20:34;;;;;;;2.83;1.30;;;22.40;51.00;;;;;;4855917;28;47141;-83
2023/10/04 05:23:00;;;;;;;1.77;1.50;;;22.40;51.00;;;;;;4880264;28;45333;-83
2023/10/04 05:25:27;;;;;;;1.75;1.25;;;22.40;51.00;;;;;;4840066;28;45812;-83
2023/10/04 05:28:02;;;;;;;1.90;1.30;;;22.40;51.00;;;;;;4833000;28;45333;-82
2023/10/04 05:30:27;;;;;;;2.17;1.45;;;22.40;51.00;;;;;;4866676;28;46583;-80
2023/10/04 05:32:55;;;;;;;2.00;1.33;;;22.40;51.00;;;;;;4834820;28;44973;-83
2023/10/04 05:35:21;;;;;;;2.42;1.38;;;22.40;51.00;;;;;;4876334;28;45938;-83
2023/10/04 05:37:47;;;;;;;2.08;1.33;;;22.40;50.90;;;;;;4860711;28;45318;-82
2023/10/04 05:40:25;;;;;;;1.77;1.35;;;22.40;50.90;;;;;;4845586;28;46377;-82
2023/10/04 05:42:53;;;;;;;2.80;1.50;;;22.30;50.90;;;;;;4838897;28;45435;-82
2023/10/04 05:45:20;;;;;;;2.53;1.52;;;22.30;50.90;;;;;;4848936;28;45303;-81
2023/10/04 05:47:48;;;;;;;1.87;1.40;;;22.30;50.90;;;;;;4850774;28;45243;-83
2023/10/04 05:50:18;;;;;;;2.15;1.48;;;22.30;50.90;;;;;;4843394;28;46994;-83
2023/10/04 05:52:53;;;;;;;2.58;1.63;;;22.30;50.90;;;;;;4834315;29;45043;-82
2023/10/04 05:55:20;;;;;;;2.10;1.50;;;22.30;50.90;;;;;;4880087;28;45436;-82
2023/10/04 05:57:46;;;;;;;2.47;1.45;;;22.30;50.90;;;;;;4852355;28;45671;-84
2023/10/04 06:00:33;;;;;;;2.00;1.30;;;22.40;50.90;;;;;;4831025;28;48315;-83
2023/10/04 06:03:06;;;;;;;1.75;1.20;;;22.30;50.80;;;;;;4886885;28;45516;-83
2023/10/04 06:05:36;;;;;;;1.75;1.25;;;22.30;50.80;;;;;;4849672;28;45243;-83
2023/10/04 06:08:11;;;;;;;2.28;1.40;;;22.30;50.80;;;;;;4877620;29;44835;-83
2023/10/04 06:10:37;;;;;;;2.10;1.30;;;22.30;50.80;;;;;;4876843;28;45734;-83
2023/10/04 06:13:03;;;;;;;2.20;1.50;;;22.30;50.80;;;;;;4887061;28;45367;-82
2023/10/04 06:15:32;;;;;;;2.33;1.50;;;22.30;50.80;;;;;;4860973;28;45466;-82
2023/10/04 06:17:59;;;;;;;1.55;1.30;;;22.30;50.80;;;;;;4849865;28;45402;-83
2023/10/04 06:20:28;;;;;;;1.93;1.43;;;22.30;50.80;;;;;;4828983;28;45705;-83
2023/10/04 06:22:56;;;;;;;1.90;1.60;;;22.30;50.80;;;;;;4853034;28;45352;-83
2023/10/04 06:25:22;;;;;;;2.80;1.50;;;22.30;50.80;;;;;;4840754;28;45921;-83
2023/10/04 06:27:50;;;;;;;2.90;1.58;;;22.30;50.70;;;;;;4830665;28;45232;-83
2023/10/04 06:30:21;;;;;;;1.42;1.30;;;22.30;50.80;;;;;;4854883;28;47535;-82
2023/10/04 06:32:52;;;;;;;1.80;1.50;;;22.30;50.70;;;;;;4878677;28;45453;-82
2023/10/04 06:35:18;;;;;;;1.77;1.40;;;22.30;50.70;;;;;;4864605;28;45609;-82
2023/10/04 06:37:44;;;;;;;2.67;1.40;;;22.30;50.80;;;;;;4834559;28;46078;-82
2023/10/04 06:40:15;;;;;;;1.90;1.50;;;22.30;50.80;;;;;;4863549;28;45999;-82
2023/10/04 06:42:43;;;;;;;2.07;1.60;;;22.30;50.70;;;;;;4868407;28;45639;-82
2023/10/04 06:45:09;;;;;;;1.77;1.45;;;22.30;50.70;;;;;;4846389;28;45472;-83
2023/10/04 06:47:35;;;;;;;2.03;1.52;;;22.30;50.70;;;;;;4830423;28;45066;-83
2023/10/04 06:50:02;;;;;;;2.20;1.50;;;22.30;50.80;;;;;;4876012;28;46176;-83
2023/10/04 06:52:28;;;;;;;2.38;1.63;;;22.30;50.70;;;;;;4846759;28;45276;-83
2023/10/04 06:54:54;;;;;;;2.07;1.50;;;22.30;50.70;;;;;;4846439;28;45146;-82
2023/10/04 06:57:20;;;;;;;1.88;1.50;;;22.30;50.70;;;;;;4888966;28;44947;-82
2023/10/04 06:59:46;;;;;;;2.70;1.70;;;22.30;50.70;;;;;;4878002;28;45809;-82
2023/10/04 07:02:12;;;;;;;1.80;1.60;;;22.30;50.70;;;;;;4853856;28;47084;-81
2023/10/04 07:04:37;;;;;;;2.58;1.70;;;22.30;50.70;;;;;;4872211;28;45521;-82
2023/10/04 07:07:03;;;;;;;2.77;1.80;;;22.30;50.70;;;;;;4861296;28;45622;-82
2023/10/04 07:09:29;;;;;;;1.98;1.50;;;22.20;50.60;;;;;;4894238;28;45375;-82
2023/10/04 07:11:55;;;;;;;2.37;1.67;;;22.30;50.70;;;;;;4860309;28;45161;-82
2023/10/04 07:14:21;;;;;;;2.55;1.55;;;22.30;50.70;;;;;;4897718;28;45271;-82
2023/10/04 07:16:46;;;;;;;1.95;1.73;;;22.20;50.60;;;;;;4855284;29;45741;-82
2023/10/04 07:19:14;;;;;;;1.87;1.67;;;22.30;50.70;;;;;;4833154;28;47284;-82
2023/10/04 07:21:40;;;;;;;2.20;1.65;;;22.30;50.60;;;;;;4860754;28;45282;-82
2023/10/04 07:24:06;;;;;;;2.33;1.70;;;22.30;50.60;;;;;;4847213;28;45628;-82
2023/10/04 07:26:35;;;;;;;1.55;1.45;;;22.30;50.60;;;;;;4873898;28;44971;-82
2023/10/04 07:29:02;;;;;;;2.58;1.95;;;22.30;50.60;;;;;;4883515;28;46330;-83
2023/10/04 07:31:28;;;;;;;1.63;1.50;;;22.30;50.60;;;;;;4836861;28;45398;-82
2023/10/04 07:33:54;;;;;;;1.65;1.48;;;22.30;50.60;;;;;;4861835;28;46477;-83
2023/10/04 07:36:20;;;;;;;2.90;1.70;;;22.30;50.60;;;;;;4893131;28;45306;-83
2023/10/04 07:38:46;;;;;;;2.40;1.73;;;22.20;50.60;;;;;;4881260;29;46373;-82
2023/10/04 07:41:12;;;;;;;1.80;1.50;;;22.20;50.60;;;;;;4875104;28;45744;-82
2023/10/04 07:43:39;;;;;;;1.83;1.57;;;22.20;50.60;;;;;;4848642;28;45053;-83
2023/10/04 07:46:05;;;;;;;2.42;1.70;;;22.20;50.60;;;;;;4871968;28;45589;-83
2023/10/04 07:48:31;;;;;;;2.53;1.60;;;22.20;50.60;;;;;;4883035;28;45596;-82
2023/10/04 07:50:56;;;;;;;1.75;1.60;;;22.20;50.60;;;;;;4892206;28;45742;-82
2023/10/04 07:53:23;;;;;;;2.20;1.67;;;22.20;50.60;;;;;;4863035;28;45109;-82
2023/10/04 07:55:51;;;;;;;2.63;1.90;;;22.20;50.60;;;;;;4877898;29;45383;-82
2023/10/04 07:58:17;;;;;;;2.53;1.80;;;22.20;50.60;;;;;;4875445;29;45379;-82
2023/10/04 08:00:44;;;;;;;1.98;1.77;;;22.20;50.60;;;;;;4853132;28;45345;-82
2023/10/04 08:03:10;;;;;;;2.50;1.85;;;22.20;50.60;;;;;;4877832;28;45585;-82
2023/10/04 08:05:36;;;;;;;2.20;1.60;;;22.20;50.60;;;;;;4864516;28;46253;-82
2023/10/04 08:08:03;;;;;;;2.28;1.60;;;22.20;50.60;;;;;;4855787;28;47584;-82
2023/10/04 08:10:55;;;;;;;2.10;1.63;;;22.20;50.60;;;;;;4848383;28;45485;-82
2023/10/04 08:13:21;;;;;;;3.05;1.90;;;22.30;50.60;;;;;;4869525;28;45395;-83
2023/10/04 08:15:46;;;;;;;2.40;1.95;;;22.30;50.60;;;;;;4840765;29;45198;-82
2023/10/04 08:18:16;;;;;;;1.90;1.67;;;22.20;50.60;;;;;;4879422;28;45966;-83
2023/10/04 08:20:42;;;;;;;1.70;1.50;;;22.20;50.60;;;;;;4863951;28;45359;-82
2023/10/04 08:23:08;;;;;;;2.60;1.80;;;22.20;50.60;;;;;;4851936;28;45227;-82
2023/10/04 08:25:35;;;;;;;2.13;1.70;;;22.20;50.60;;;;;;4834321;28;45238;-83
2023/10/04 08:28:01;;;;;;;1.80;1.60;;;22.20;50.60;;;;;;4852720;28;46274;-82
2023/10/04 08:30:27;;;;;;;2.42;1.67;;;22.20;50.60;;;;;;4844685;28;45230;-83
2023/10/04 08:32:53;;;;;;;2.22;1.80;;;22.20;50.60;;;;;;4880498;28;45090;-82
2023/10/04 08:35:21;;;;;;;2.60;1.73;;;22.20;50.60;;;;;;4862920;28;45793;-82
2023/10/04 08:37:53;;;;;;;1.95;1.60;;;22.20;50.60;;;;;;4870765;28;46705;-82
2023/10/04 08:40:19;;;;;;;2.00;1.45;;;22.20;50.60;;;;;;4846032;28;44926;-81
2023/10/04 08:42:47;;;;;;;2.60;1.90;;;22.20;50.70;;;;;;4885377;28;46421;-83
2023/10/04 08:45:13;;;;;;;1.92;1.63;;;22.20;50.60;;;;;;4835080;28;44856;-81
2023/10/04 08:47:39;;;;;;;2.08;1.67;;;22.20;51.20;;;;;;4851982;28;46630;-82
2023/10/04 08:50:06;;;;;;;1.88;1.67;;;22.30;50.70;;;;;;4852546;29;46046;-82
2023/10/04 08:52:36;;;;;;;2.00;1.63;;;22.20;50.60;;;;;;4836813;28;44928;-82
2023/10/04 08:55:07;;;;;;;2.20;1.77;;;22.20;50.60;;;;;;4870170;28;45489;-81
2023/10/04 08:57:38;;;;;;;2.50;1.77;;;22.20;50.60;;;;;;4868029;28;46212;-82
2023/10/04 09:00:13;;;;;;;4.43;1.95;;;22.20;50.70;;;;;;4868677;28;45396;-82
2023/10/04 09:02:47;;;;;;;1.92;1.50;;;22.20;51.20;;;;;;4864194;29;45685;-83
2023/10/04 09:05:16;;;;;;;1.93;1.50;;;22.20;50.60;;;;;;4848020;29;45354;-82
2023/10/04 09:07:46;;;;;;;1.70;1.50;;;22.30;50.70;;;;;;4849822;29;47549;-82
2023/10/04 09:10:15;;;;;;;2.37;1.70;;;22.20;50.60;;;;;;4846738;28;45533;-83
2023/10/04 09:12:42;;;;;;;2.30;1.70;;;22.20;50.70;;;;;;4831252;29;45570;-82
2023/10/04 09:15:09;;;;;;;2.30;1.55;;;22.30;50.70;;;;;;4878993;29;45285;-82
2023/10/04 09:17:47;;;;;;;1.88;1.58;;;22.20;50.70;;;;;;4816911;29;45993;-82
2023/10/04 09:20:15;;;;;;;2.58;1.80;;;22.30;50.80;;;;;;4815940;29;45446;-82
2023/10/04 09:22:40;;;;;;;1.90;1.40;;;22.20;50.70;;;;;;4845516;29;45296;-82
2023/10/04 09:25:06;;;;;;;2.10;1.60;;;22.30;50.70;;;;;;4864581;29;45363;-82
2023/10/04 09:27:32;;;;;;;2.25;1.67;;;22.20;50.70;;;;;;4815609;29;45327;-82
2023/10/04 09:29:59;;;;;;;2.50;1.50;;;22.20;50.70;;;;;;4848932;29;44950;-82
2023/10/04 09:32:35;;;;;;;1.77;1.50;;;22.30;50.70;;;;;;4876941;28;45551;-82
2023/10/04 09:35:00;;;;;;;1.95;1.50;;;22.20;50.70;;;;;;4817763;29;45504;-82
2023/10/04 09:37:26;;;;;;;2.20;1.50;;;22.20;50.70;;;;;;4832886;29;45750;-82
2023/10/04 09:40:08;;;;;;;1.90;1.40;;;22.20;50.70;;;;;;4852311;29;44983;-83
2023/10/04 09:42:49;;;;;;;1.95;1.50;;;22.20;50.70;;;;;;4864026;29;45534;-83
2023/10/04 09:45:15;;;;;;;2.10;1.60;;;22.30;50.80;;;;;;4816193;28;45145;-83
2023/10/04 09:47:42;;;;;;;2.10;1.55;;;22.30;50.70;;;;;;4879538;29;46417;-82
2023/10/04 09:50:22;;;;;;;1.80;1.30;;;22.30;50.70;;;;;;4848873;28;45015;-82
2023/10/04 09:52:48;;;;;;;1.98;1.40;;;22.20;50.70;;;;;;4869556;29;45412;-83
2023/10/04 09:55:14;;;;;;;2.63;1.38;;;22.20;50.60;;;;;;4821753;29;45347;-82
2023/10/04 09:57:42;;;;;;;2.30;1.50;;;22.30;50.70;;;;;;4832324;29;46529;-82
2023/10/04 10:00:17;;;;;;;1.75;1.33;;;22.30;50.70;;;;;;4881108;29;45574;-81
2023/10/04 10:02:47;;;;;;;1.75;1.40;;;22.20;50.70;;;;;;4866801;28;45085;-84
2023/10/04 10:05:26;;;;;;;2.08;1.30;;;22.30;50.70;;;;;;4865674;28;45564;-81
2023/10/04 10:08:04;;;;;;;1.85;1.40;;;22.30;50.70;;;;;;4880931;28;45033;-83
2023/10/04 10:10:34;;;;;;;2.08;1.38;;;22.20;50.70;;;;;;4899456;28;45375;-83
2023/10/04 10:13:00;;;;;;;2.28;1.65;;;22.30;50.80;;;;;;4873147;28;45326;-82
2023/10/04 10:15:27;;;;;;;1.85;1.33;;;22.20;50.60;;;;;;4852168;28;45184;-83
2023/10/04 10:17:53;;;;;;;2.17;1.50;;;22.20;50.70;;;;;;4887366;28;45374;-82
2023/10/04 10:20:19;;;;;;;2.03;1.23;;;22.20;50.70;;;;;;4861592;28;45322;-81
2023/10/04 10:23:00;;;;;;;1.80;1.27;;;22.30;50.70;;;;;;4864028;28;44654;-83
2023/10/04 10:25:29;;;;;;;2.13;1.38;;;22.30;50.70;;;;;;4887716;28;45210;-84
2023/10/04 10:28:23;;;;;;;2.40;1.38;;;22.30;50.70;;;;;;4866865;28;46287;-83
2023/10/04 10:30:58;;;;;;;1.88;1.30;;;22.30;50.70;;;;;;4865870;28;45679;-82
2023/10/04 10:33:25;;;;;;;2.45;1.55;;;22.30;50.70;;;;;;4861604;28;45339;-83
2023/10/04 10:35:58;;;;;;;2.10;1.40;;;22.30;50.70;;;;;;4878620;28;45294;-83
2023/10/04 10:38:31;;;;;;;1.92;1.20;;;22.30;50.70;;;;;;4873452;28;46257;-83
2023/10/04 10:40:57;;;;;;;3.13;1.40;;;22.30;50.70;;;;;;4864511;28;46056;-83
2023/10/04 10:43:23;;;;;;;1.85;1.08;;;22.30;50.70;;;;;;4902934;28;44935;-83
2023/10/04 10:45:49;;;;;;;2.20;1.23;;;22.30;50.70;;;;;;4872895;28;45691;-82
2023/10/04 10:48:14;;;;;;;1.73;1.40;;;22.30;50.70;;;;;;4866955;28;46206;-83
2023/10/04 10:50:41;;;;;;;1.60;1.30;;;22.30;50.70;;;;;;4847032;28;45199;-84
2023/10/04 10:53:10;;;;;;;2.10;1.37;;;22.30;50.70;;;;;;4856410;28;45353;-84
2023/10/04 10:55:37;;;;;;;1.75;1.23;;;22.30;50.70;;;;;;4847950;28;45468;-83
2023/10/04 10:58:03;;;;;;;2.25;1.48;;;22.30;50.70;;;;;;4868112;28;45343;-83
2023/10/04 11:00:32;;;;;;;1.97;1.40;;;22.30;50.80;;;;;;4859750;28;45188;-82
2023/10/04 11:03:00;;;;;;;2.00;1.20;;;22.30;50.70;;;;;;4875166;28;45269;-83
2023/10/04 11:05:26;;;;;;;1.73;1.30;;;22.30;50.70;;;;;;4872921;28;45222;-83
2023/10/04 11:07:55;;;;;;;2.78;1.33;;;22.30;50.70;;;;;;4836560;28;45808;-84
2023/10/04 11:10:23;;;;;;;1.85;1.42;;;22.30;50.70;;;;;;4845932;28;45577;-83
2023/10/04 11:12:55;;;;;;;1.60;1.10;;;22.30;50.70;;;;;;4867980;28;45143;-84
2023/10/04 11:15:23;;;;;;;1.90;1.20;;;22.30;50.70;;;;;;4847198;28;45418;-84
2023/10/04 11:17:53;;;;;;;2.00;1.17;;;22.30;50.70;;;;;;4855337;28;45904;-82
2023/10/04 11:20:21;;;;;;;1.65;1.20;;;22.30;50.70;;;;;;4847741;28;45278;-83
2023/10/04 11:22:49;;;;;;;1.55;1.10;;;22.30;50.70;;;;;;4859243;28;45322;-84
2023/10/04 11:25:15;;;;;;;2.33;1.50;;;22.30;50.70;;;;;;4874606;28;44693;-84
2023/10/04 11:27:43;;;;;;;1.80;1.00;;;22.30;50.70;;;;;;4850945;28;46220;-84
2023/10/04 11:30:22;;;;;;;1.80;1.20;;;22.30;50.70;;;;;;4867725;28;44932;-84
2023/10/04 11:32:48;;;;;;;2.20;1.17;;;22.30;50.70;;;;;;4845403;28;45769;-83
2023/10/04 11:35:16;;;;;;;1.45;1.05;;;22.30;50.70;;;;;;4862491;28;45348;-84
2023/10/04 11:37:43;;;;;;;2.27;1.10;;;22.20;50.60;;;;;;4886558;28;46280;-84
2023/10/04 11:40:11;;;;;;;1.65;1.20;;;22.30;50.70;;;;;;4897519;28;45381;-82
2023/10/04 11:42:38;;;;;;;2.83;1.20;;;22.30;50.60;;;;;;4860396;29;45666;-82
2023/10/04 11:45:23;;;;;;;2.58;1.20;;;22.30;50.70;;;;;;4862398;28;44920;-82
2023/10/04 11:48:08;;;;;;;1.60;1.20;;;22.30;50.70;;;;;;4897541;28;45957;-83
2023/10/04 11:50:53;;;;;;;1.52;1.10;;;22.30;50.70;;;;;;4849244;28;45623;-83
2023/10/04 11:53:30;;;;;;;2.40;1.48;;;22.30;50.70;;;;;;4883904;28;45108;-83
2023/10/04 11:56:06;;;;;;;1.85;1.25;;;22.30;50.60;;;;;;4875789;28;45330;-84
2023/10/04 11:58:53;;;;;;;1.60;1.10;;;22.30;50.70;;;;;;4884055;29;45829;-84
2023/10/04 12:01:20;;;;;;;2.57;1.27;;;22.30;50.70;;;;;;4871654;28;45713;-83
2023/10/04 12:03:46;;;;;;;1.42;1.02;;;22.30;50.70;;;;;;4866892;28;45194;-84
2023/10/04 12:06:15;;;;;;;2.10;1.20;;;22.30;50.70;;;;;;4849890;28;45530;-84
2023/10/04 12:08:41;;;;;;;1.80;1.10;;;22.30;50.70;;;;;;4889765;28;46437;-82
2023/10/04 12:11:22;;;;;;;1.92;1.10;;;22.30;50.60;;;;;;4861442;28;45229;-84
2023/10/04 12:13:49;;;;;;;1.70;1.10;;;22.30;50.60;;;;;;4879397;28;45067;-81
2023/10/04 12:16:17;;;;;;;1.77;0.93;;;22.30;50.60;;;;;;4853688;28;44813;-83
2023/10/04 12:18:43;;;;;;;1.55;1.10;;;22.30;50.60;;;;;;4890582;28;45681;-82
2023/10/04 12:21:09;;;;;;;1.75;1.23;;;22.30;50.60;;;;;;4861846;29;45181;-83
2023/10/04 12:23:36;;;;;;;2.28;1.23;;;22.30;50.60;;;;;;4852330;28;45318;-83
2023/10/04 12:26:03;;;;;;;1.70;0.90;;;22.30;50.60;;;;;;4853434;28;45676;-83
2023/10/04 12:28:29;;;;;;;2.08;1.17;;;22.30;50.60;;;;;;4868930;29;46441;-83
2023/10/04 12:31:18;;;;;;;1.40;0.93;;;22.30;50.60;;;;;;4871335;28;45378;-83
2023/10/04 12:33:45;;;;;;;2.53;1.10;;;22.30;50.60;;;;;;4890447;28;45499;-83
2023/10/04 12:36:12;;;;;;;1.52;1.00;;;22.30;50.60;;;;;;4856102;28;45323;-84
2023/10/04 12:38:37;;;;;;;1.73;1.00;;;22.30;50.60;;;;;;4865407;28;45437;-84
2023/10/04 12:41:03;;;;;;;1.47;1.00;;;22.30;50.60;;;;;;4843589;28;44784;-85
2023/10/04 12:43:28;;;;;;;1.63;0.90;;;22.30;50.60;;;;;;4837902;28;45371;-84
2023/10/04 12:45:54;;;;;;;2.03;1.00;;;22.30;50.60;;;;;;4841833;28;45043;-84
2023/10/04 12:48:20;;;;;;;1.03;0.80;;;22.30;50.60;;;;;;4854109;28;47265;-84
2023/10/04 12:50:49;;;;;;;2.13;1.15;;;22.30;50.60;;;;;;4860676;28;45540;-84
2023/10/04 12:53:15;;;;;;;1.53;1.00;;;22.30;50.60;;;;;;4880297;28;44940;-84
2023/10/04 12:55:45;;;;;;;1.63;0.80;;;22.30;50.60;;;;;;4842905;28;45059;-84
2023/10/04 12:58:11;;;;;;;1.65;1.08;;;22.30;50.60;;;;;;4873071;28;45480;-84
2023/10/04 13:00:37;;;;;;;1.85;1.10;;;22.30;50.60;;;;;;4861079;28;45474;-83
2023/10/04 13:03:04;;;;;;;1.70;1.10;;;22.30;50.60;;;;;;4834362;29;45240;-84
2023/10/04 13:05:31;;;;;;;1.33;0.93;;;22.30;50.60;;;;;;4846051;29;45506;-84
2023/10/04 13:07:57;;;;;;;2.13;1.10;;;22.30;50.60;;;;;;4851273;29;46511;-84
2023/10/04 13:10:23;;;;;;;1.75;1.15;;;22.30;50.60;;;;;;4844334;29;45155;-84
2023/10/04 13:12:49;;;;;;;1.70;0.90;;;22.30;50.60;;;;;;4848295;29;45304;-84
2023/10/04 13:15:15;;;;;;;1.23;0.90;;;22.30;50.60;;;;;;4829395;29;44904;-84
2023/10/04 13:17:43;;;;;;;1.47;1.00;;;22.30;50.60;;;;;;4850431;29;46176;-84
2023/10/04 13:20:17;;;;;;;1.40;0.95;;;22.30;50.60;;;;;;4830983;28;44863;-83
2023/10/04 13:22:45;;;;;;;1.90;0.90;;;22.30;50.60;;;;;;4840037;29;45267;-84
2023/10/04 13:25:12;;;;;;;1.33;0.90;;;22.30;50.60;;;;;;4845445;29;45587;-84
2023/10/04 13:27:38;;;;;;;1.23;0.90;;;22.30;50.60;;;;;;4832979;29;46657;-83
2023/10/04 13:30:06;;;;;;;1.65;0.90;;;22.40;50.60;;;;;;4829660;29;45476;-82
2023/10/04 13:32:32;;;;;;;1.70;0.90;;;22.30;50.60;;;;;;4830652;29;45347;-84
2023/10/04 13:34:59;;;;;;;1.52;0.90;;;22.30;50.60;;;;;;4834815;28;45726;-84
2023/10/04 13:37:26;;;;;;;1.67;1.08;;;22.30;50.60;;;;;;4849319;29;45986;-84
2023/10/04 13:39:52;;;;;;;0.93;0.80;;;22.30;50.60;;;;;;4836240;29;45800;-84
2023/10/04 13:42:18;;;;;;;1.40;0.82;;;22.30;50.60;;;;;;4844957;29;46180;-83
2023/10/04 13:44:44;;;;;;;1.20;0.80;;;22.30;50.60;;;;;;4887022;29;45303;-84
2023/10/04 13:47:11;;;;;;;1.20;0.82;;;22.30;50.60;;;;;;4842985;29;46238;-83
2023/10/04 13:49:38;;;;;;;1.73;0.80;;;22.30;50.60;;;;;;4852126;29;45203;-84
2023/10/04 13:52:04;;;;;;;1.60;0.95;;;22.40;50.60;;;;;;4855519;29;45790;-85
2023/10/04 13:54:31;;;;;;;2.00;1.05;;;22.30;50.60;;;;;;4831832;29;45624;-84
2023/10/04 13:56:57;;;;;;;1.17;0.80;;;22.30;50.60;;;;;;4851656;29;46275;-84
2023/10/04 13:59:23;;;;;;;1.70;0.80;;;22.40;50.70;;;;;;4850002;29;44763;-84
2023/10/04 14:01:50;;;;;;;0.98;0.80;;;22.30;50.60;;;;;;4851453;28;45381;-84
2023/10/04 14:04:16;;;;;;;1.60;0.90;;;22.30;50.60;;;;;;4869775;28;45512;-84
2023/10/04 14:06:43;;;;;;;1.77;1.00;;;22.30;50.60;;;;;;4866308;28;45268;-84
2023/10/04 14:09:14;;;;;;;1.35;0.88;;;22.40;50.60;;;;;;4845209;28;45236;-84
2023/10/04 14:11:40;;;;;;;1.50;0.77;;;22.40;50.60;;;;;;4867334;28;45200;-84
2023/10/04 14:14:07;;;;;;;1.15;0.85;;;22.30;50.60;;;;;;4872925;28;45605;-84
2023/10/04 14:16:34;;;;;;;1.57;0.80;;;22.40;50.60;;;;;;4855508;28;45326;-83
2023/10/04 14:19:00;;;;;;;1.10;0.90;;;22.30;50.60;;;;;;4890829;28;46134;-84
2023/10/04 14:21:27;;;;;;;1.10;0.80;;;22.30;50.60;;;;;;4872488;28;44674;-83
2023/10/04 14:23:52;;;;;;;1.92;0.93;;;22.30;50.60;;;;;;4879788;28;44931;-82
2023/10/04 14:26:18;;;;;;;1.20;0.83;;;22.30;50.60;;;;;;4845674;28;45393;-83
2023/10/04 14:28:45;;;;;;;1.00;0.80;;;22.30;50.60;;;;;;4852680;28;44985;-82
2023/10/04 14:31:13;;;;;;;2.40;0.90;;;22.30;50.60;;;;;;4836249;28;45541;-84
2023/10/04 14:33:40;;;;;;;1.25;0.70;;;22.40;50.60;;;;;;4847518;28;45471;-83
2023/10/04 14:36:06;;;;;;;1.50;0.90;;;22.30;50.60;;;;;;4841146;28;46872;-83
2023/10/04 14:38:32;;;;;;;1.60;0.90;;;22.30;50.60;;;;;;4868427;29;45182;-83
2023/10/04 14:40:58;;;;;;;1.45;0.90;;;22.30;50.60;;;;;;4859417;28;45974;-82
2023/10/04 14:43:25;;;;;;;1.48;0.80;;;22.30;50.60;;;;;;4850325;28;45440;-84
2023/10/04 14:45:52;;;;;;;1.73;0.85;;;22.30;50.60;;;;;;4851457;28;46172;-83
2023/10/04 14:48:19;;;;;;;1.30;0.90;;;22.30;50.60;;;;;;4878199;28;45302;-83
2023/10/04 14:50:52;;;;;;;1.45;0.70;;;22.40;50.60;;;;;;4844997;28;45233;-83
2023/10/04 14:53:19;;;;;;;1.30;0.80;;;22.30;50.60;;;;;;4842705;28;45493;-83
2023/10/04 14:55:45;;;;;;;1.27;0.90;;;22.30;50.60;;;;;;4891204;28;46463;-83
2023/10/04 14:58:10;;;;;;;1.77;0.90;;;22.30;50.60;;;;;;4837438;28;45604;-83
2023/10/04 15:00:36;;;;;;;1.08;0.80;;;22.40;50.60;;;;;;4846066;28;45328;-83
2023/10/04 15:03:04;;;;;;;1.90;1.08;;;22.40;50.60;;;;;;4862251;29;45725;-84
2023/10/04 15:05:29;;;;;;;1.30;0.90;;;22.40;50.60;;;;;;4859083;29;46194;-84
2023/10/04 15:07:55;;;;;;;2.30;1.20;;;22.30;50.60;;;;;;4864757;29;45367;-83
2023/10/04 15:10:21;;;;;;;1.50;0.90;;;22.30;50.60;;;;;;4860741;29;44878;-84
2023/10/04 15:12:48;;;;;;;1.45;0.80;;;22.30;50.60;;;;;;4847947;29;45413;-84
2023/10/04 15:15:15;;;;;;;1.60;0.90;;;22.40;50.60;;;;;;4873449;29;45516;-82
2023/10/04 15:17:44;;;;;;;1.43;1.03;;;22.30;50.60;;;;;;4843019;29;45580;-83
2023/10/04 15:20:13;;;;;;;1.63;0.90;;;22.40;50.60;;;;;;4860149;29;45243;-83
2023/10/04 15:22:44;;;;;;;1.30;0.80;;;22.30;51.20;;;;;;4873289;29;45019;-83
2023/10/04 15:25:14;;;;;;;1.73;0.90;;;22.40;50.60;;;;;;4842539;29;46400;-83
2023/10/04 15:27:50;;;;;;;1.90;1.10;;;22.40;50.60;;;;;;4877124;29;46740;-83
2023/10/04 15:30:19;;;;;;;1.30;0.90;;;22.40;50.60;;;;;;4867217;29;45172;-82
2023/10/04 15:32:52;;;;;;;1.45;1.00;;;22.40;50.60;;;;;;4875285;29;45072;-83
2023/10/04 15:35:24;;;;;;;1.08;0.77;;;22.40;50.60;;;;;;4857055;29;46215;-81
2023/10/04 15:37:51;;;;;;;1.77;1.10;;;22.30;50.50;;;;;;4880842;29;44904;-82
2023/10/04 15:40:20;;;;;;;1.40;0.90;;;22.40;50.60;;;;;;4842791;28;45663;-82
2023/10/04 15:42:46;;;;;;;1.33;0.90;;;22.40;50.60;;;;;;4828340;29;44919;-85
2023/10/04 15:45:12;;;;;;;1.85;1.20;;;22.40;50.60;;;;;;4804081;29;46421;-84
2023/10/04 15:47:39;;;;;;;2.28;1.10;;;22.40;50.60;;;;;;4835912;29;45367;-85
2023/10/04 15:50:06;;;;;;;1.48;1.00;;;22.40;50.60;;;;;;4825846;29;44850;-84
2023/10/04 15:52:33;;;;;;;1.90;1.10;;;22.40;50.60;;;;;;4817384;29;45086;-82
2023/10/04 15:54:59;;;;;;;1.88;1.15;;;22.40;50.60;;;;;;4828464;29;46358;-82
2023/10/04 15:57:25;;;;;;;2.13;1.30;;;22.40;50.60;;;;;;4822803;29;45847;-82